Nashville, TN

7:31 AM CDT on October 30, 2014 (GMT -0500)
Inglewood | Change Station
CLOSE
Current Station
Personal Weather Station
Location: Nashville, TN
Elevation: 505 ft
Nearby Weather Stations
Active Advisory: Special Statement Active Notice: Public Information Statement

Elev 505 ft 36.21 °N, 86.71 °W | Updated 3 seconds ago

Clear
Clear
36.9 °F
Feels Like 37 °F
N
0.0
Wind Variable Wind from South
Gusts 1.6 mph

Today
High -- | Low -- °F
--% Chance of Precip.
Yesterday
High -- | Low -- °F
Precip. -- in
7:07 AM 5:53 PM
Waxing Crescent, 43% visible
Pressure 30.17 in
Visibility 10.0 miles
Clouds Clear
Windchill 37 °F
Dew Point 37 °F
Humidity 99%
Rainfall 0.00 in
Snow Depth Not available.
UV 0 out of 12
Pollen .90 out of 12
Air Quality Not available.
Flu Activity Not available.
METAR KBNA 301153Z 00000KT 10SM BCFG CLR 04/03 A3017 RMK AO2 SLP215 BCFG E T00440033 10094 20039 53008

More Conditions Fewer Conditions

Pressure 30.17 in
Visibility 10.0 miles
Clouds Clear
Windchill 37 °F
Dew Point 37 °F
Humidity 99%
Rainfall 0.00 in
Snow Depth Not available.
UV 0 out of 12
Pollen .90 out of 12
Air Quality Not available.
Flu Activity Not available.
METAR KBNA 301153Z 00000KT 10SM BCFG CLR 04/03 A3017 RMK AO2 SLP215 BCFG E T00440033 10094 20039 53008

More Conditions Fewer Conditions

10-Day Weather Forecast

Almanac

Astronomy

Oct. 30, 2014 Rise Set
Actual Time
Civil Twilight
Nautical Twilight
Astronomical Twilight
Moon
Length of Visible Light
Length of Day
Tomorrow will be .
, % of the Moon is Illuminated

Today's Extremes

State Highs State Lows

Community

WunderPhotos

Upload Photos

1,766,351 photos uploaded!

WunderBlogs® & News

Nearby

Air Quality

  Air Quality AQ Index Pollutant
Not available.

Snow Depth

Station Depth Elevation

Earthquake Activity

City Distance Mag. Time & Date
Minimum magnitude displayed is 2.5.

Coastal Water Temperatures

Place Temperature

Nearby Weather Stations